sensor_id;sensor_type;location;lat;lon;timestamp;pressure;altitude;pressure_sealevel;temperature;humidity
58473;BME280;44775;51.564;5.460;2022-07-23T00:00:43;101639.53;;;15.04;89.89
58473;BME280;44775;51.564;5.460;2022-07-23T00:03:08;101628.59;;;15.06;89.04
58473;BME280;44775;51.564;5.460;2022-07-23T00:05:33;101641.25;;;14.97;90.68
58473;BME280;44775;51.564;5.460;2022-07-23T00:07:59;101641.81;;;14.93;89.32
58473;BME280;44775;51.564;5.460;2022-07-23T00:10:24;101647.91;;;14.86;90.37
58473;BME280;44775;51.564;5.460;2022-07-23T00:12:49;101647.56;;;14.81;90.19
58473;BME280;44775;51.564;5.460;2022-07-23T00:15:15;101644.53;;;14.84;89.20
58473;BME280;44775;51.564;5.460;2022-07-23T00:17:40;101652.00;;;14.74;90.80
58473;BME280;44775;51.564;5.460;2022-07-23T00:20:05;101642.59;;;14.70;90.75
58473;BME280;44775;51.564;5.460;2022-07-23T00:22:31;101649.91;;;14.84;90.04
58473;BME280;44775;51.564;5.460;2022-07-23T00:24:56;101642.06;;;14.75;90.36
58473;BME280;44775;51.564;5.460;2022-07-23T00:27:22;101634.13;;;14.81;90.76
58473;BME280;44775;51.564;5.460;2022-07-23T00:29:47;101636.19;;;14.71;90.73
58473;BME280;44775;51.564;5.460;2022-07-23T00:32:12;101641.22;;;14.74;91.33
58473;BME280;44775;51.564;5.460;2022-07-23T00:34:38;101634.06;;;14.67;91.86
58473;BME280;44775;51.564;5.460;2022-07-23T00:37:03;101636.59;;;14.60;92.31
58473;BME280;44775;51.564;5.460;2022-07-23T00:39:28;101633.44;;;14.56;91.67
58473;BME280;44775;51.564;5.460;2022-07-23T00:41:54;101631.75;;;14.55;91.45
58473;BME280;44775;51.564;5.460;2022-07-23T00:44:26;101630.38;;;14.59;92.07
58473;BME280;44775;51.564;5.460;2022-07-23T00:46:53;101633.94;;;14.44;92.05
58473;BME280;44775;51.564;5.460;2022-07-23T00:49:19;101630.97;;;14.38;91.13
58473;BME280;44775;51.564;5.460;2022-07-23T00:51:45;101628.63;;;14.35;91.69
58473;BME280;44775;51.564;5.460;2022-07-23T00:54:10;101633.03;;;14.28;91.87
58473;BME280;44775;51.564;5.460;2022-07-23T00:56:36;101630.69;;;14.25;91.49
58473;BME280;44775;51.564;5.460;2022-07-23T00:59:01;101640.44;;;14.18;94.38
58473;BME280;44775;51.564;5.460;2022-07-23T01:01:27;101631.22;;;14.12;93.03
58473;BME280;44775;51.564;5.460;2022-07-23T01:03:52;101632.19;;;14.20;92.09
58473;BME280;44775;51.564;5.460;2022-07-23T01:06:17;101624.00;;;14.13;92.71
58473;BME280;44775;51.564;5.460;2022-07-23T01:08:43;101626.69;;;14.13;93.26
58473;BME280;44775;51.564;5.460;2022-07-23T01:11:08;101629.56;;;14.11;93.12
58473;BME280;44775;51.564;5.460;2022-07-23T01:13:33;101620.16;;;14.07;94.31
58473;BME280;44775;51.564;5.460;2022-07-23T01:15:59;101614.78;;;14.07;93.71
58473;BME280;44775;51.564;5.460;2022-07-23T01:18:24;101617.47;;;14.07;92.93
58473;BME280;44775;51.564;5.460;2022-07-23T01:20:50;101618.81;;;14.03;92.59
58473;BME280;44775;51.564;5.460;2022-07-23T01:23:15;101614.31;;;13.96;94.16
58473;BME280;44775;51.564;5.460;2022-07-23T01:25:53;101615.66;;;13.91;94.33
58473;BME280;44775;51.564;5.460;2022-07-23T01:28:18;101620.34;;;13.89;92.56
58473;BME280;44775;51.564;5.460;2022-07-23T01:30:44;101619.88;;;13.94;93.28
58473;BME280;44775;51.564;5.460;2022-07-23T01:33:10;101617.19;;;13.94;93.75
58473;BME280;44775;51.564;5.460;2022-07-23T01:35:35;101614.63;;;13.92;94.06
58473;BME280;44775;51.564;5.460;2022-07-23T01:38:00;101609.31;;;13.84;94.31
58473;BME280;44775;51.564;5.460;2022-07-23T01:40:25;101615.16;;;13.88;93.86
58473;BME280;44775;51.564;5.460;2022-07-23T01:42:51;101613.47;;;13.87;94.40
58473;BME280;44775;51.564;5.460;2022-07-23T01:45:16;101612.66;;;13.78;94.26
58473;BME280;44775;51.564;5.460;2022-07-23T01:47:41;101612.50;;;13.72;94.92
58473;BME280;44775;51.564;5.460;2022-07-23T01:50:07;101608.66;;;13.66;95.97
58473;BME280;44775;51.564;5.460;2022-07-23T01:52:32;101614.69;;;13.60;95.10
58473;BME280;44775;51.564;5.460;2022-07-23T01:54:57;101613.34;;;13.56;96.07
58473;BME280;44775;51.564;5.460;2022-07-23T01:57:23;101612.88;;;13.52;95.83
58473;BME280;44775;51.564;5.460;2022-07-23T01:59:48;101605.66;;;13.44;96.33
58473;BME280;44775;51.564;5.460;2022-07-23T02:02:13;101613.56;;;13.38;95.76
58473;BME280;44775;51.564;5.460;2022-07-23T02:04:39;101610.69;;;13.31;96.52
58473;BME280;44775;51.564;5.460;2022-07-23T02:07:04;101610.34;;;13.26;95.05
58473;BME280;44775;51.564;5.460;2022-07-23T02:09:29;101601.47;;;13.26;94.56
58473;BME280;44775;51.564;5.460;2022-07-23T02:11:55;101604.97;;;13.26;95.67
58473;BME280;44775;51.564;5.460;2022-07-23T02:14:20;101606.69;;;13.27;97.70
58473;BME280;44775;51.564;5.460;2022-07-23T02:16:45;101606.00;;;13.25;97.20
58473;BME280;44775;51.564;5.460;2022-07-23T02:19:11;101593.72;;;13.22;98.14
58473;BME280;44775;51.564;5.460;2022-07-23T02:21:36;101596.38;;;13.22;95.52
58473;BME280;44775;51.564;5.460;2022-07-23T02:24:02;101599.59;;;13.18;95.78
58473;BME280;44775;51.564;5.460;2022-07-23T02:26:27;101600.94;;;13.22;96.26
58473;BME280;44775;51.564;5.460;2022-07-23T02:28:52;101600.28;;;13.20;96.53
58473;BME280;44775;51.564;5.460;2022-07-23T02:31:20;101598.97;;;13.24;96.68
58473;BME280;44775;51.564;5.460;2022-07-23T02:33:46;101593.38;;;13.17;98.14
58473;BME280;44775;51.564;5.460;2022-07-23T02:36:11;101597.91;;;13.17;98.93
58473;BME280;44775;51.564;5.460;2022-07-23T02:38:36;101598.91;;;13.16;97.22
58473;BME280;44775;51.564;5.460;2022-07-23T02:41:02;101597.78;;;13.27;97.84
58473;BME280;44775;51.564;5.460;2022-07-23T02:43:27;101596.56;;;13.21;98.19
58473;BME280;44775;51.564;5.460;2022-07-23T02:45:52;101601.63;;;13.24;98.63
58473;BME280;44775;51.564;5.460;2022-07-23T02:48:18;101603.28;;;13.17;98.27
58473;BME280;44775;51.564;5.460;2022-07-23T02:50:43;101611.31;;;13.09;99.37
58473;BME280;44775;51.564;5.460;2022-07-23T02:53:08;101613.00;;;13.18;99.04
58473;BME280;44775;51.564;5.460;2022-07-23T02:55:33;101612.00;;;13.11;99.14
58473;BME280;44775;51.564;5.460;2022-07-23T02:57:59;101610.81;;;13.05;98.98
58473;BME280;44775;51.564;5.460;2022-07-23T03:00:24;101609.97;;;13.05;99.71
58473;BME280;44775;51.564;5.460;2022-07-23T03:02:50;101613.50;;;13.05;99.60
58473;BME280;44775;51.564;5.460;2022-07-23T03:05:15;101610.63;;;12.98;100.00
58473;BME280;44775;51.564;5.460;2022-07-23T03:07:40;101621.88;;;13.02;99.73
58473;BME280;44775;51.564;5.460;2022-07-23T03:10:06;101617.00;;;12.89;100.00
58473;BME280;44775;51.564;5.460;2022-07-23T03:12:31;101621.19;;;12.92;100.00
58473;BME280;44775;51.564;5.460;2022-07-23T03:14:56;101629.06;;;12.85;100.00
58473;BME280;44775;51.564;5.460;2022-07-23T03:17:22;101625.06;;;12.89;100.00
58473;BME280;44775;51.564;5.460;2022-07-23T03:19:47;101614.16;;;12.83;100.00
58473;BME280;44775;51.564;5.460;2022-07-23T03:22:12;101625.38;;;12.94;100.00
58473;BME280;44775;51.564;5.460;2022-07-23T03:24:37;101618.19;;;12.87;100.00
58473;BME280;44775;51.564;5.460;2022-07-23T03:27:22;101623.34;;;12.80;100.00
58473;BME280;44775;51.564;5.460;2022-07-23T03:29:49;101625.53;;;12.76;100.00
58473;BME280;44775;51.564;5.460;2022-07-23T03:32:15;101623.34;;;12.80;100.00
58473;BME280;44775;51.564;5.460;2022-07-23T03:34:40;101627.84;;;12.71;100.00
58473;BME280;44775;51.564;5.460;2022-07-23T03:37:06;101627.19;;;12.69;100.00
58473;BME280;44775;51.564;5.460;2022-07-23T03:39:31;101631.53;;;12.70;100.00
58473;BME280;44775;51.564;5.460;2022-07-23T03:41:56;101628.16;;;12.68;100.00
58473;BME280;44775;51.564;5.460;2022-07-23T03:44:22;101624.38;;;12.79;100.00
58473;BME280;44775;51.564;5.460;2022-07-23T03:46:47;101624.84;;;12.66;100.00
58473;BME280;44775;51.564;5.460;2022-07-23T03:49:13;101623.81;;;12.67;100.00
58473;BME280;44775;51.564;5.460;2022-07-23T03:51:38;101629.38;;;12.66;100.00
58473;BME280;44775;51.564;5.460;2022-07-23T03:54:03;101632.88;;;12.66;100.00
58473;BME280;44775;51.564;5.460;2022-07-23T03:56:29;101630.84;;;12.68;100.00
58473;BME280;44775;51.564;5.460;2022-07-23T03:58:54;101621.31;;;12.66;100.00
58473;BME280;44775;51.564;5.460;2022-07-23T04:01:19;101629.00;;;12.61;100.00
58473;BME280;44775;51.564;5.460;2022-07-23T04:03:44;101638.38;;;12.57;100.00
58473;BME280;44775;51.564;5.460;2022-07-23T04:06:11;101635.00;;;12.55;100.00
58473;BME280;44775;51.564;5.460;2022-07-23T04:08:36;101638.00;;;12.51;100.00
58473;BME280;44775;51.564;5.460;2022-07-23T04:11:02;101634.66;;;12.49;100.00
58473;BME280;44775;51.564;5.460;2022-07-23T04:13:27;101637.34;;;12.49;100.00
58473;BME280;44775;51.564;5.460;2022-07-23T04:15:52;101630.28;;;12.48;100.00
58473;BME280;44775;51.564;5.460;2022-07-23T04:18:18;101640.03;;;12.49;100.00
58473;BME280;44775;51.564;5.460;2022-07-23T04:20:43;101642.53;;;12.51;100.00
58473;BME280;44775;51.564;5.460;2022-07-23T04:23:09;101644.38;;;12.50;100.00
58473;BME280;44775;51.564;5.460;2022-07-23T04:25:34;101642.72;;;12.49;100.00
58473;BME280;44775;51.564;5.460;2022-07-23T04:28:00;101641.69;;;12.50;100.00
58473;BME280;44775;51.564;5.460;2022-07-23T04:30:25;101647.06;;;12.50;100.00
58473;BME280;44775;51.564;5.460;2022-07-23T04:32:50;101648.59;;;12.53;100.00
58473;BME280;44775;51.564;5.460;2022-07-23T04:35:16;101653.81;;;12.63;100.00
58473;BME280;44775;51.564;5.460;2022-07-23T04:37:41;101658.84;;;12.66;100.00
58473;BME280;44775;51.564;5.460;2022-07-23T04:40:06;101657.00;;;12.66;100.00
58473;BME280;44775;51.564;5.460;2022-07-23T04:42:32;101662.88;;;12.70;100.00
58473;BME280;44775;51.564;5.460;2022-07-23T04:44:57;101656.50;;;12.71;100.00
58473;BME280;44775;51.564;5.460;2022-07-23T04:47:22;101665.75;;;12.76;100.00
58473;BME280;44775;51.564;5.460;2022-07-23T04:49:47;101664.94;;;12.92;100.00
58473;BME280;44775;51.564;5.460;2022-07-23T04:52:13;101667.97;;;12.89;100.00
58473;BME280;44775;51.564;5.460;2022-07-23T04:54:40;101676.03;;;12.97;100.00
58473;BME280;44775;51.564;5.460;2022-07-23T04:57:05;101670.84;;;12.96;100.00
58473;BME280;44775;51.564;5.460;2022-07-23T04:59:31;101675.03;;;12.98;100.00
58473;BME280;44775;51.564;5.460;2022-07-23T05:01:56;101673.72;;;13.11;100.00
58473;BME280;44775;51.564;5.460;2022-07-23T05:04:21;101671.03;;;13.11;100.00
58473;BME280;44775;51.564;5.460;2022-07-23T05:06:47;101672.06;;;13.18;100.00
58473;BME280;44775;51.564;5.460;2022-07-23T05:09:12;101675.41;;;13.20;100.00
58473;BME280;44775;51.564;5.460;2022-07-23T05:11:37;101679.84;;;13.37;100.00
58473;BME280;44775;51.564;5.460;2022-07-23T05:14:02;101677.47;;;13.42;100.00
58473;BME280;44775;51.564;5.460;2022-07-23T05:16:28;101678.16;;;13.44;100.00
58473;BME280;44775;51.564;5.460;2022-07-23T05:18:53;101673.78;;;13.52;100.00
58473;BME280;44775;51.564;5.460;2022-07-23T05:21:19;101680.84;;;13.61;100.00
58473;BME280;44775;51.564;5.460;2022-07-23T05:23:44;101680.84;;;13.69;100.00
58473;BME280;44775;51.564;5.460;2022-07-23T05:26:09;101681.16;;;13.82;100.00
58473;BME280;44775;51.564;5.460;2022-07-23T05:28:35;101676.78;;;13.98;100.00
58473;BME280;44775;51.564;5.460;2022-07-23T05:31:00;101680.44;;;14.13;100.00
58473;BME280;44775;51.564;5.460;2022-07-23T05:33:25;101687.59;;;14.37;100.00
58473;BME280;44775;51.564;5.460;2022-07-23T05:35:51;101686.66;;;14.69;100.00
58473;BME280;44775;51.564;5.460;2022-07-23T05:38:16;101694.66;;;14.85;100.00
58473;BME280;44775;51.564;5.460;2022-07-23T05:40:41;101704.59;;;15.16;99.76
58473;BME280;44775;51.564;5.460;2022-07-23T05:43:06;101688.69;;;15.29;98.30
58473;BME280;44775;51.564;5.460;2022-07-23T05:45:32;101698.22;;;15.55;97.20
58473;BME280;44775;51.564;5.460;2022-07-23T05:47:57;101697.16;;;15.87;96.97
58473;BME280;44775;51.564;5.460;2022-07-23T05:50:22;101699.03;;;16.16;95.75
58473;BME280;44775;51.564;5.460;2022-07-23T05:52:48;101703.81;;;16.44;94.27
58473;BME280;44775;51.564;5.460;2022-07-23T05:55:13;101708.25;;;16.66;92.57
58473;BME280;44775;51.564;5.460;2022-07-23T05:57:39;101705.66;;;16.88;90.51
58473;BME280;44775;51.564;5.460;2022-07-23T06:00:05;101711.63;;;17.19;91.69
58473;BME280;44775;51.564;5.460;2022-07-23T06:02:31;101723.41;;;17.55;87.58
58473;BME280;44775;51.564;5.460;2022-07-23T06:04:56;101716.66;;;17.87;89.02
58473;BME280;44775;51.564;5.460;2022-07-23T06:07:21;101722.03;;;18.08;86.28
58473;BME280;44775;51.564;5.460;2022-07-23T06:09:47;101726.69;;;18.21;85.32
58473;BME280;44775;51.564;5.460;2022-07-23T06:12:14;101723.25;;;18.34;85.86
58473;BME280;44775;51.564;5.460;2022-07-23T06:14:39;101729.19;;;18.51;84.63
58473;BME280;44775;51.564;5.460;2022-07-23T06:17:04;101727.69;;;18.83;80.34
58473;BME280;44775;51.564;5.460;2022-07-23T06:19:30;101735.53;;;19.19;80.72
58473;BME280;44775;51.564;5.460;2022-07-23T06:21:55;101730.81;;;19.41;78.56
58473;BME280;44775;51.564;5.460;2022-07-23T06:24:20;101731.50;;;19.63;76.88
58473;BME280;44775;51.564;5.460;2022-07-23T06:26:45;101735.47;;;19.80;77.99
58473;BME280;44775;51.564;5.460;2022-07-23T06:29:11;101737.56;;;19.98;77.02
58473;BME280;44775;51.564;5.460;2022-07-23T06:31:36;101740.06;;;20.07;77.21
58473;BME280;44775;51.564;5.460;2022-07-23T06:34:02;101737.53;;;20.25;75.80
58473;BME280;44775;51.564;5.460;2022-07-23T06:36:27;101735.16;;;20.48;76.07
58473;BME280;44775;51.564;5.460;2022-07-23T06:38:52;101741.63;;;20.74;72.95
58473;BME280;44775;51.564;5.460;2022-07-23T06:41:18;101739.47;;;20.96;69.67
58473;BME280;44775;51.564;5.460;2022-07-23T06:43:43;101740.41;;;21.15;70.52
58473;BME280;44775;51.564;5.460;2022-07-23T06:46:08;101739.06;;;21.31;71.39
58473;BME280;44775;51.564;5.460;2022-07-23T06:48:34;101735.81;;;21.54;66.87
58473;BME280;44775;51.564;5.460;2022-07-23T06:51:01;101744.44;;;21.44;67.62
58473;BME280;44775;51.564;5.460;2022-07-23T06:53:26;101743.34;;;21.52;67.52
58473;BME280;44775;51.564;5.460;2022-07-23T06:55:51;101746.75;;;21.72;67.13
58473;BME280;44775;51.564;5.460;2022-07-23T06:58:16;101751.22;;;21.91;66.11
58473;BME280;44775;51.564;5.460;2022-07-23T07:00:44;101751.34;;;22.28;66.47
58473;BME280;44775;51.564;5.460;2022-07-23T07:03:09;101750.06;;;22.49;64.46
58473;BME280;44775;51.564;5.460;2022-07-23T07:05:34;101754.69;;;22.67;60.08
58473;BME280;44775;51.564;5.460;2022-07-23T07:08:00;101751.44;;;22.58;61.48
58473;BME280;44775;51.564;5.460;2022-07-23T07:10:26;101749.03;;;22.69;59.26
58473;BME280;44775;51.564;5.460;2022-07-23T07:12:52;101758.09;;;22.62;59.26
58473;BME280;44775;51.564;5.460;2022-07-23T07:15:17;101749.84;;;22.51;58.66
58473;BME280;44775;51.564;5.460;2022-07-23T07:17:42;101746.72;;;22.47;60.82
58473;BME280;44775;51.564;5.460;2022-07-23T07:20:08;101746.97;;;22.82;59.91
58473;BME280;44775;51.564;5.460;2022-07-23T07:22:33;101738.66;;;22.96;58.93
58473;BME280;44775;51.564;5.460;2022-07-23T07:24:59;101735.38;;;22.87;58.38
58473;BME280;44775;51.564;5.460;2022-07-23T07:27:24;101745.72;;;23.15;55.87
58473;BME280;44775;51.564;5.460;2022-07-23T07:29:49;101752.78;;;23.04;56.54
58473;BME280;44775;51.564;5.460;2022-07-23T07:32:15;101751.09;;;23.22;56.79
58473;BME280;44775;51.564;5.460;2022-07-23T07:34:40;101757.69;;;23.44;56.98
58473;BME280;44775;51.564;5.460;2022-07-23T07:37:05;101761.63;;;23.78;56.07
58473;BME280;44775;51.564;5.460;2022-07-23T07:39:31;101760.34;;;24.16;54.54
58473;BME280;44775;51.564;5.460;2022-07-23T07:41:56;101769.41;;;24.52;56.04
58473;BME280;44775;51.564;5.460;2022-07-23T07:44:21;101760.06;;;24.88;53.32
58473;BME280;44775;51.564;5.460;2022-07-23T07:46:47;101754.19;;;25.08;48.93
58473;BME280;44775;51.564;5.460;2022-07-23T07:49:12;101757.50;;;25.22;51.04
58473;BME280;44775;51.564;5.460;2022-07-23T07:51:40;101755.50;;;25.34;48.99
58473;BME280;44775;51.564;5.460;2022-07-23T07:54:05;101753.03;;;25.33;49.16
58473;BME280;44775;51.564;5.460;2022-07-23T07:56:30;101748.22;;;25.40;50.84
58473;BME280;44775;51.564;5.460;2022-07-23T07:58:56;101750.78;;;25.58;50.81
58473;BME280;44775;51.564;5.460;2022-07-23T08:01:21;101752.88;;;25.85;46.85
58473;BME280;44775;51.564;5.460;2022-07-23T08:03:46;101759.41;;;26.18;47.13
58473;BME280;44775;51.564;5.460;2022-07-23T08:06:12;101771.31;;;26.06;45.54
58473;BME280;44775;51.564;5.460;2022-07-23T08:08:37;101769.22;;;26.13;47.50
58473;BME280;44775;51.564;5.460;2022-07-23T08:11:02;101763.31;;;26.22;46.13
58473;BME280;44775;51.564;5.460;2022-07-23T08:13:28;101767.63;;;26.18;46.50
58473;BME280;44775;51.564;5.460;2022-07-23T08:15:53;101769.84;;;26.37;45.21
58473;BME280;44775;51.564;5.460;2022-07-23T08:18:19;101769.47;;;26.68;42.92
58473;BME280;44775;51.564;5.460;2022-07-23T08:20:44;101772.41;;;26.83;44.99
58473;BME280;44775;51.564;5.460;2022-07-23T08:23:10;101777.78;;;27.17;46.35
58473;BME280;44775;51.564;5.460;2022-07-23T08:25:40;101772.50;;;27.64;43.94
58473;BME280;44775;51.564;5.460;2022-07-23T08:28:07;101777.84;;;27.76;42.60
58473;BME280;44775;51.564;5.460;2022-07-23T08:30:33;101773.69;;;27.46;42.73
58473;BME280;44775;51.564;5.460;2022-07-23T08:33:05;101781.09;;;27.46;41.83
58473;BME280;44775;51.564;5.460;2022-07-23T08:35:43;101784.44;;;27.21;43.24
58473;BME280;44775;51.564;5.460;2022-07-23T08:38:11;101794.34;;;27.27;43.39
58473;BME280;44775;51.564;5.460;2022-07-23T08:40:41;101800.50;;;27.61;42.33
58473;BME280;44775;51.564;5.460;2022-07-23T08:43:08;101788.84;;;27.27;42.04
58473;BME280;44775;51.564;5.460;2022-07-23T08:45:38;101792.19;;;26.85;42.07
58473;BME280;44775;51.564;5.460;2022-07-23T08:48:05;101798.38;;;27.41;42.94
58473;BME280;44775;51.564;5.460;2022-07-23T08:50:30;101796.06;;;27.87;41.99
58473;BME280;44775;51.564;5.460;2022-07-23T08:52:57;101804.03;;;28.21;42.00
58473;BME280;44775;51.564;5.460;2022-07-23T08:55:24;101804.56;;;28.18;41.28
58473;BME280;44775;51.564;5.460;2022-07-23T08:57:50;101796.94;;;27.93;41.44
58473;BME280;44775;51.564;5.460;2022-07-23T09:00:16;101803.28;;;27.93;42.18
58473;BME280;44775;51.564;5.460;2022-07-23T09:02:42;101792.88;;;28.00;41.88
58473;BME280;44775;51.564;5.460;2022-07-23T09:05:12;101806.31;;;28.29;40.10
58473;BME280;44775;51.564;5.460;2022-07-23T09:07:37;101794.88;;;28.42;41.03
58473;BME280;44775;51.564;5.460;2022-07-23T09:10:09;101792.84;;;28.75;39.69
58473;BME280;44775;51.564;5.460;2022-07-23T09:12:36;101789.47;;;29.21;40.57
58473;BME280;44775;51.564;5.460;2022-07-23T09:15:06;101794.75;;;29.37;40.98
58473;BME280;44775;51.564;5.460;2022-07-23T09:17:39;101786.81;;;29.61;39.83
58473;BME280;44775;51.564;5.460;2022-07-23T09:20:10;101784.91;;;29.82;38.76
58473;BME280;44775;51.564;5.460;2022-07-23T09:22:36;101779.41;;;29.87;38.61
58473;BME280;44775;51.564;5.460;2022-07-23T09:30:13;101767.53;;;29.92;38.20
58473;BME280;44775;51.564;5.460;2022-07-23T09:32:41;101768.38;;;29.77;36.41
58473;BME280;44775;51.564;5.460;2022-07-23T09:35:07;101775.25;;;29.90;37.42
58473;BME280;44775;51.564;5.460;2022-07-23T09:37:32;101781.06;;;29.94;36.59
58473;BME280;44775;51.564;5.460;2022-07-23T09:40:10;101784.34;;;29.85;37.03
58473;BME280;44775;51.564;5.460;2022-07-23T09:42:41;101786.56;;;29.83;36.02
58473;BME280;44775;51.564;5.460;2022-07-23T09:45:19;101792.63;;;29.85;36.13
58473;BME280;44775;51.564;5.460;2022-07-23T09:47:44;101791.50;;;29.97;36.07
58473;BME280;44775;51.564;5.460;2022-07-23T09:50:11;101789.03;;;30.26;36.18
58473;BME280;44775;51.564;5.460;2022-07-23T09:52:42;101793.06;;;30.79;35.62
58473;BME280;44775;51.564;5.460;2022-07-23T09:55:08;101791.78;;;31.11;36.43
58473;BME280;44775;51.564;5.460;2022-07-23T09:57:34;101786.75;;;31.34;35.36
58473;BME280;44775;51.564;5.460;2022-07-23T10:00:08;101782.19;;;31.53;33.57
58473;BME280;44775;51.564;5.460;2022-07-23T10:02:35;101785.66;;;31.24;33.30
58473;BME280;44775;51.564;5.460;2022-07-23T10:05:01;101788.00;;;30.97;35.84
58473;BME280;44775;51.564;5.460;2022-07-23T10:07:27;101784.81;;;31.34;35.76
58473;BME280;44775;51.564;5.460;2022-07-23T10:09:56;101785.97;;;32.02;35.71
58473;BME280;44775;51.564;5.460;2022-07-23T10:12:21;101791.16;;;32.85;35.37
58473;BME280;44775;51.564;5.460;2022-07-23T10:14:47;101787.94;;;33.40;32.14
58473;BME280;44775;51.564;5.460;2022-07-23T10:17:13;101792.06;;;33.94;32.73
58473;BME280;44775;51.564;5.460;2022-07-23T10:19:38;101784.63;;;34.08;32.43
58473;BME280;44775;51.564;5.460;2022-07-23T10:29:50;101790.16;;;33.00;30.94
58473;BME280;44775;51.564;5.460;2022-07-23T10:34:54;101786.41;;;32.91;31.00
58473;BME280;44775;51.564;5.460;2022-07-23T10:37:38;101787.19;;;33.34;30.14
58473;BME280;44775;51.564;5.460;2022-07-23T10:40:19;101792.34;;;33.41;31.93
58473;BME280;44775;51.564;5.460;2022-07-23T10:42:46;101798.00;;;33.55;30.47
58473;BME280;44775;51.564;5.460;2022-07-23T10:45:23;101789.44;;;33.13;29.27
58473;BME280;44775;51.564;5.460;2022-07-23T10:47:49;101797.09;;;33.22;29.80
58473;BME280;44775;51.564;5.460;2022-07-23T10:57:56;101780.78;;;34.51;27.30
58473;BME280;44775;51.564;5.460;2022-07-23T11:00:24;101782.97;;;34.68;28.81
58473;BME280;44775;51.564;5.460;2022-07-23T11:02:53;101785.44;;;34.55;28.78
58473;BME280;44775;51.564;5.460;2022-07-23T11:05:20;101784.50;;;34.33;28.68
58473;BME280;44775;51.564;5.460;2022-07-23T11:10:36;101790.66;;;34.98;27.01
58473;BME280;44775;51.564;5.460;2022-07-23T11:21:40;101781.13;;;34.63;28.40
58473;BME280;44775;51.564;5.460;2022-07-23T11:24:05;101781.75;;;34.74;27.80
58473;BME280;44775;51.564;5.460;2022-07-23T11:31:53;101775.03;;;34.89;25.60
58473;BME280;44775;51.564;5.460;2022-07-23T11:37:03;101773.22;;;34.57;27.06
58473;BME280;44775;51.564;5.460;2022-07-23T11:39:29;101772.03;;;34.30;26.09
58473;BME280;44775;51.564;5.460;2022-07-23T11:41:54;101772.66;;;34.27;26.68
58473;BME280;44775;51.564;5.460;2022-07-23T11:44:27;101771.88;;;34.68;26.96
58473;BME280;44775;51.564;5.460;2022-07-23T11:46:56;101780.63;;;35.25;25.93
58473;BME280;44775;51.564;5.460;2022-07-23T11:49:22;101775.03;;;35.84;25.79
58473;BME280;44775;51.564;5.460;2022-07-23T11:52:01;101780.22;;;36.30;24.92
58473;BME280;44775;51.564;5.460;2022-07-23T11:54:27;101790.22;;;36.62;25.84
58473;BME280;44775;51.564;5.460;2022-07-23T11:56:56;101780.19;;;36.61;24.17
58473;BME280;44775;51.564;5.460;2022-07-23T11:59:22;101773.06;;;36.38;23.84
58473;BME280;44775;51.564;5.460;2022-07-23T12:01:55;101772.31;;;35.92;25.19
58473;BME280;44775;51.564;5.460;2022-07-23T12:04:21;101776.63;;;35.99;25.05
58473;BME280;44775;51.564;5.460;2022-07-23T12:06:46;101771.81;;;36.13;24.96
58473;BME280;44775;51.564;5.460;2022-07-23T12:09:11;101781.25;;;36.03;24.20
58473;BME280;44775;51.564;5.460;2022-07-23T12:11:37;101767.94;;;35.69;24.43
58473;BME280;44775;51.564;5.460;2022-07-23T12:14:02;101764.63;;;35.44;24.00
58473;BME280;44775;51.564;5.460;2022-07-23T12:16:28;101769.13;;;35.18;23.76
58473;BME280;44775;51.564;5.460;2022-07-23T12:18:53;101768.00;;;35.19;25.06
58473;BME280;44775;51.564;5.460;2022-07-23T12:21:18;101767.41;;;35.44;24.60
58473;BME280;44775;51.564;5.460;2022-07-23T12:23:46;101773.31;;;35.97;24.76
58473;BME280;44775;51.564;5.460;2022-07-23T12:26:13;101768.22;;;36.21;24.84
58473;BME280;44775;51.564;5.460;2022-07-23T12:28:38;101769.06;;;36.53;22.71
58473;BME280;44775;51.564;5.460;2022-07-23T12:31:04;101763.56;;;36.39;23.28
58473;BME280;44775;51.564;5.460;2022-07-23T12:33:31;101764.34;;;36.00;24.20
58473;BME280;44775;51.564;5.460;2022-07-23T12:35:58;101754.47;;;36.16;23.62
58473;BME280;44775;51.564;5.460;2022-07-23T12:38:24;101761.94;;;36.07;24.00
58473;BME280;44775;51.564;5.460;2022-07-23T12:40:57;101747.81;;;35.94;24.94
58473;BME280;44775;51.564;5.460;2022-07-23T12:43:25;101747.63;;;36.22;24.29
58473;BME280;44775;51.564;5.460;2022-07-23T12:45:54;101749.66;;;36.39;24.44
58473;BME280;44775;51.564;5.460;2022-07-23T12:48:21;101753.09;;;36.45;24.52
58473;BME280;44775;51.564;5.460;2022-07-23T12:50:49;101745.66;;;36.62;23.05
58473;BME280;44775;51.564;5.460;2022-07-23T12:53:15;101742.88;;;36.71;23.93
58473;BME280;44775;51.564;5.460;2022-07-23T12:55:42;101744.13;;;37.40;23.68
58473;BME280;44775;51.564;5.460;2022-07-23T12:58:09;101744.13;;;37.48;23.54
58473;BME280;44775;51.564;5.460;2022-07-23T13:00:52;101745.59;;;37.28;23.75
58473;BME280;44775;51.564;5.460;2022-07-23T13:03:29;101741.91;;;36.27;24.04
58473;BME280;44775;51.564;5.460;2022-07-23T13:05:55;101742.22;;;35.05;25.86
58473;BME280;44775;51.564;5.460;2022-07-23T13:08:20;101739.28;;;34.73;25.86
58473;BME280;44775;51.564;5.460;2022-07-23T13:10:46;101750.41;;;34.96;26.25
58473;BME280;44775;51.564;5.460;2022-07-23T13:13:16;101744.72;;;35.51;25.89
58473;BME280;44775;51.564;5.460;2022-07-23T13:15:42;101745.44;;;36.10;25.07
58473;BME280;44775;51.564;5.460;2022-07-23T13:18:08;101741.88;;;36.58;24.07
58473;BME280;44775;51.564;5.460;2022-07-23T13:20:33;101747.22;;;36.46;23.78
58473;BME280;44775;51.564;5.460;2022-07-23T13:22:59;101745.97;;;36.61;24.30
58473;BME280;44775;51.564;5.460;2022-07-23T13:25:24;101752.06;;;36.63;24.21